createdAt,value
2018-10-17T00:00:49.380Z,99.99
2018-10-17T00:01:49.369Z,99.99
2018-10-17T00:02:49.366Z,99.99
2018-10-17T00:03:49.372Z,99.99
2018-10-17T00:04:49.365Z,99.99
2018-10-17T00:05:49.375Z,99.99
2018-10-17T00:06:49.360Z,99.99
2018-10-17T00:07:49.364Z,99.99
2018-10-17T00:08:49.358Z,99.99
2018-10-17T00:09:49.379Z,99.99
2018-10-17T00:10:49.359Z,99.99
2018-10-17T00:11:49.357Z,99.99
2018-10-17T00:12:49.355Z,99.99
2018-10-17T00:13:49.356Z,99.99
2018-10-17T00:14:49.357Z,99.99
2018-10-17T00:15:49.351Z,99.99
2018-10-17T00:16:49.365Z,99.99
2018-10-17T00:17:49.360Z,99.99
2018-10-17T00:18:49.344Z,99.99
2018-10-17T00:19:49.343Z,99.99
2018-10-17T00:20:49.341Z,99.99
2018-10-17T00:21:49.344Z,99.99
2018-10-17T00:22:49.341Z,99.99
2018-10-17T00:23:49.339Z,99.99
2018-10-17T00:24:49.339Z,99.99
2018-10-17T00:25:49.354Z,99.99
2018-10-17T00:26:49.336Z,99.99
2018-10-17T00:27:49.336Z,99.99
2018-10-17T00:28:49.332Z,99.99
2018-10-17T00:29:49.331Z,99.99
2018-10-17T00:30:49.329Z,99.99
2018-10-17T00:31:49.328Z,99.99
2018-10-17T00:32:49.330Z,99.99
2018-10-17T00:33:49.325Z,99.99
2018-10-17T00:34:49.325Z,99.99
2018-10-17T00:35:49.324Z,99.99
2018-10-17T00:36:49.323Z,99.99
2018-10-17T00:37:49.320Z,99.99
2018-10-17T00:38:49.319Z,99.99
2018-10-17T00:39:49.317Z,99.99
2018-10-17T00:40:49.316Z,99.99
2018-10-17T00:41:49.313Z,99.99
2018-10-17T00:42:49.311Z,99.99
2018-10-17T00:43:49.309Z,99.99
2018-10-17T00:44:49.310Z,99.99
2018-10-17T00:45:49.311Z,99.99
2018-10-17T00:46:49.304Z,99.99
2018-10-17T00:47:49.306Z,99.99
2018-10-17T00:48:49.305Z,99.99
2018-10-17T00:49:49.303Z,99.99
2018-10-17T00:50:49.318Z,99.99
2018-10-17T00:51:49.300Z,99.99
2018-10-17T00:52:49.296Z,99.99
2018-10-17T00:53:49.302Z,99.99
2018-10-17T00:54:49.295Z,99.99
2018-10-17T00:55:49.295Z,99.99
2018-10-17T00:56:49.291Z,99.99
2018-10-17T00:57:49.297Z,99.99
2018-10-17T00:58:49.287Z,99.99
2018-10-17T00:59:49.287Z,99.99
2018-10-17T01:00:49.286Z,99.99
2018-10-17T01:01:49.284Z,99.99
2018-10-17T01:02:49.283Z,99.99
2018-10-17T01:03:49.284Z,99.99
2018-10-17T01:04:49.287Z,99.99
2018-10-17T01:05:49.280Z,99.99
2018-10-17T01:06:49.276Z,99.99
2018-10-17T01:07:49.297Z,99.99
2018-10-17T01:08:49.273Z,99.99
2018-10-17T01:09:49.273Z,99.99
2018-10-17T01:10:49.282Z,99.99
2018-10-17T01:11:49.269Z,99.99
2018-10-17T01:12:49.271Z,99.99
2018-10-17T01:13:49.266Z,99.99
2018-10-17T01:14:49.265Z,99.99
2018-10-17T01:15:49.265Z,99.99
2018-10-17T01:16:49.263Z,99.99
2018-10-17T01:17:49.269Z,99.99
2018-10-17T01:18:49.257Z,99.99
2018-10-17T01:19:49.258Z,99.99
2018-10-17T01:20:49.256Z,99.99
2018-10-17T01:21:49.255Z,99.99
2018-10-17T01:22:49.253Z,99.99
2018-10-17T01:23:49.251Z,99.99
2018-10-17T01:24:49.250Z,99.99
2018-10-17T01:25:49.248Z,99.99
2018-10-17T01:26:49.247Z,99.99
2018-10-17T01:27:49.302Z,99.99
2018-10-17T01:28:49.248Z,99.99
2018-10-17T01:29:49.243Z,99.99
2018-10-17T01:30:49.240Z,99.99
2018-10-17T01:31:49.239Z,99.99
2018-10-17T01:32:49.236Z,99.99
2018-10-17T01:33:49.464Z,99.99
2018-10-17T01:34:49.254Z,99.99
2018-10-17T01:35:49.235Z,99.99
2018-10-17T01:36:49.232Z,99.99
2018-10-17T01:37:49.228Z,99.99
2018-10-17T01:38:49.228Z,99.99
2018-10-17T01:39:49.225Z,99.99
2018-10-17T01:40:49.225Z,99.99
2018-10-17T01:41:49.222Z,99.99
2018-10-17T01:42:49.221Z,99.99
2018-10-17T01:43:49.219Z,99.99
2018-10-17T01:44:49.219Z,99.99
2018-10-17T01:45:49.215Z,99.99
2018-10-17T01:46:49.211Z,99.99
2018-10-17T01:47:49.217Z,99.99
2018-10-17T01:48:49.208Z,99.99
2018-10-17T01:49:49.207Z,99.99
2018-10-17T01:50:49.206Z,99.99
2018-10-17T01:51:49.205Z,99.99
2018-10-17T01:52:49.205Z,99.99
2018-10-17T01:53:49.221Z,99.99
2018-10-17T01:54:49.205Z,99.99
2018-10-17T01:55:49.204Z,99.99
2018-10-17T01:56:49.198Z,99.99
2018-10-17T01:57:49.195Z,99.99
2018-10-17T01:58:49.193Z,99.99
2018-10-17T01:59:49.192Z,99.99
2018-10-17T02:00:49.190Z,99.99
2018-10-17T02:01:49.189Z,99.99
2018-10-17T02:02:49.185Z,99.99
2018-10-17T02:03:49.194Z,99.99
2018-10-17T02:04:49.187Z,99.99
2018-10-17T02:05:49.187Z,99.99
2018-10-17T02:06:49.185Z,99.99
2018-10-17T02:07:49.176Z,99.99
2018-10-17T02:08:49.181Z,99.99
2018-10-17T02:09:49.173Z,99.99
2018-10-17T02:10:49.174Z,99.99
2018-10-17T02:11:49.171Z,99.99
2018-10-17T02:12:49.169Z,99.99
2018-10-17T02:13:49.167Z,99.99
2018-10-17T02:14:49.172Z,99.99
2018-10-17T02:15:49.165Z,99.99
2018-10-17T02:16:49.164Z,99.99
2018-10-17T02:17:49.159Z,99.99
2018-10-17T02:18:49.160Z,99.99
2018-10-17T02:19:49.163Z,99.99
2018-10-17T02:20:49.173Z,99.99
2018-10-17T02:21:49.156Z,99.99
2018-10-17T02:22:49.167Z,99.99
2018-10-17T02:23:49.150Z,99.99
2018-10-17T02:24:49.159Z,99.99
2018-10-17T02:25:49.156Z,99.99
2018-10-17T02:26:49.159Z,99.99
2018-10-17T02:27:49.141Z,99.99
2018-10-17T02:28:49.178Z,99.99
2018-10-17T02:29:49.169Z,99.99
2018-10-17T02:30:49.140Z,99.99
2018-10-17T02:31:49.141Z,99.99
2018-10-17T02:32:49.137Z,99.99
2018-10-17T02:33:49.135Z,99.99
2018-10-17T02:34:49.132Z,99.99
2018-10-17T02:35:49.135Z,99.99
2018-10-17T02:36:49.129Z,99.99
2018-10-17T02:37:49.129Z,99.99
2018-10-17T02:38:49.159Z,99.99
2018-10-17T02:39:49.281Z,99.99
2018-10-17T02:40:49.176Z,99.99
2018-10-17T02:41:49.122Z,99.99
2018-10-17T02:42:49.127Z,99.99
2018-10-17T02:43:49.117Z,99.99
2018-10-17T02:44:49.119Z,99.99
2018-10-17T02:45:49.114Z,99.99
2018-10-17T02:46:49.112Z,99.99
2018-10-17T02:47:49.131Z,99.99
2018-10-17T02:48:49.109Z,99.99
2018-10-17T02:49:49.102Z,99.99
2018-10-17T02:50:49.105Z,99.99
2018-10-17T02:51:49.104Z,99.99
2018-10-17T02:53:41.997Z,99.99
2018-10-17T02:54:41.984Z,99.99
2018-10-17T02:56:34.863Z,99.99
2018-10-17T02:57:34.882Z,99.99
2018-10-17T02:59:27.727Z,99.99
2018-10-17T03:00:27.712Z,99.99
2018-10-17T03:02:20.754Z,99.99
2018-10-17T03:03:20.575Z,99.99
2018-10-17T03:05:14.076Z,99.99
2018-10-17T03:06:13.997Z,99.99
2018-10-17T03:08:07.430Z,99.99
2018-10-17T03:09:07.433Z,99.99
2018-10-17T03:11:00.337Z,99.99
2018-10-17T03:12:00.288Z,99.99
2018-10-17T03:13:54.237Z,99.99
2018-10-17T03:14:54.154Z,99.99
2018-10-17T03:16:47.039Z,99.99
2018-10-17T03:17:47.032Z,99.99
2018-10-17T03:19:39.885Z,99.99
2018-10-17T03:20:39.915Z,99.99
2018-10-17T03:22:32.866Z,99.99
2018-10-17T03:23:32.747Z,99.99
2018-10-17T03:25:25.643Z,99.99
2018-10-17T03:26:25.615Z,99.99
2018-10-17T03:28:18.566Z,99.99
2018-10-17T03:29:18.943Z,99.99
2018-10-17T03:31:12.043Z,99.99
2018-10-17T03:32:11.914Z,99.99
2018-10-17T03:33:11.914Z,99.99
2018-10-17T03:34:11.884Z,99.99
2018-10-17T03:35:11.965Z,99.99
2018-10-17T03:36:11.885Z,99.99
2018-10-17T03:37:11.982Z,99.99
2018-10-17T03:38:11.885Z,99.99
2018-10-17T03:39:12.352Z,99.99
2018-10-17T03:40:12.049Z,99.99
2018-10-17T03:41:11.945Z,99.99
2018-10-17T03:42:11.871Z,99.99
2018-10-17T03:43:11.914Z,99.99
2018-10-17T03:44:11.870Z,99.99
2018-10-17T03:45:11.863Z,99.99
2018-10-17T03:46:11.864Z,99.99
2018-10-17T03:47:11.924Z,99.99
2018-10-17T03:48:11.861Z,99.99
2018-10-17T03:49:11.942Z,99.99
2018-10-17T03:50:11.856Z,99.99
2018-10-17T03:51:11.850Z,99.99
2018-10-17T03:52:11.879Z,99.99
2018-10-17T03:53:11.946Z,99.99
2018-10-17T03:54:11.851Z,99.99
2018-10-17T03:55:11.905Z,99.99
2018-10-17T03:56:11.848Z,99.99
2018-10-17T03:57:11.841Z,99.99
2018-10-17T03:58:11.836Z,99.99
2018-10-17T03:59:11.944Z,99.99
2018-10-17T04:00:11.834Z,99.99
2018-10-17T04:01:11.881Z,99.99
2018-10-17T04:02:11.846Z,99.99
2018-10-17T04:03:11.891Z,99.99
2018-10-17T04:04:11.834Z,99.99
2018-10-17T04:05:11.917Z,99.99
2018-10-17T04:06:11.819Z,99.99
2018-10-17T04:07:11.841Z,99.99
2018-10-17T04:08:11.816Z,99.99
2018-10-17T04:09:11.814Z,99.99
2018-10-17T04:10:11.812Z,99.99
2018-10-17T04:11:11.911Z,99.99
2018-10-17T04:12:11.809Z,99.99
2018-10-17T04:13:11.882Z,99.99
2018-10-17T04:14:11.806Z,99.99
2018-10-17T04:15:11.801Z,99.99
2018-10-17T04:16:11.804Z,99.99
2018-10-17T04:17:11.834Z,99.99
2018-10-17T04:18:11.811Z,99.99
2018-10-17T04:19:11.840Z,99.99
2018-10-17T04:20:11.801Z,99.99
2018-10-17T04:21:11.791Z,99.99
2018-10-17T04:22:11.791Z,99.99
2018-10-17T04:51:47.211Z,99.99
2018-10-17T04:52:47.036Z,99.99
2018-10-17T04:53:47.035Z,99.99
2018-10-17T04:54:47.055Z,99.99
2018-10-17T04:55:47.041Z,99.99
2018-10-17T04:56:47.017Z,99.99
2018-10-17T04:57:47.039Z,99.99
2018-10-17T04:58:47.010Z,99.99
2018-10-17T04:59:47.049Z,99.99
2018-10-17T05:00:47.008Z,99.99
2018-10-17T05:01:47.171Z,99.99
2018-10-17T05:02:46.991Z,99.99
2018-10-17T05:03:46.989Z,99.99
2018-10-17T05:04:47.012Z,99.99
2018-10-17T05:05:46.980Z,99.99
2018-10-17T05:06:47.008Z,99.99
2018-10-17T05:07:46.975Z,99.99
2018-10-17T05:08:46.971Z,99.99
2018-10-17T05:09:46.968Z,99.99
2018-10-17T05:10:46.985Z,99.99
2018-10-17T05:11:46.966Z,99.99
2018-10-17T05:12:46.960Z,99.99
2018-10-17T05:13:46.959Z,99.99
2018-10-17T05:14:46.952Z,99.99
2018-10-17T05:15:46.950Z,99.99
2018-10-17T05:16:46.949Z,99.99
2018-10-17T05:17:46.945Z,99.99
2018-10-17T05:18:46.944Z,99.99
2018-10-17T05:19:46.941Z,99.99
2018-10-17T05:20:46.938Z,99.99
2018-10-17T05:21:46.948Z,99.99
2018-10-17T05:22:46.929Z,99.99
2018-10-17T05:23:46.928Z,99.99
2018-10-17T05:24:46.928Z,99.99
2018-10-17T05:25:46.925Z,99.99
2018-10-17T05:26:46.923Z,99.99
2018-10-17T05:27:46.930Z,99.99
2018-10-17T05:28:46.922Z,99.99
2018-10-17T05:29:47.002Z,99.99
2018-10-17T05:30:46.914Z,99.99
2018-10-17T05:31:46.911Z,99.99
2018-10-17T05:32:46.909Z,99.99
2018-10-17T05:33:46.904Z,99.99
2018-10-17T05:34:46.904Z,99.99
2018-10-17T05:35:46.904Z,99.99
2018-10-17T05:36:46.896Z,99.99
2018-10-17T05:37:46.983Z,99.99
2018-10-17T05:38:46.901Z,99.99
2018-10-17T05:39:46.892Z,99.99
2018-10-17T05:40:46.890Z,99.99
2018-10-17T05:41:46.899Z,99.99
2018-10-17T05:42:46.884Z,99.99
2018-10-17T05:43:46.882Z,99.99
2018-10-17T05:44:46.889Z,99.99
2018-10-17T05:45:46.889Z,99.99
2018-10-17T05:46:46.876Z,99.99
2018-10-17T05:47:46.874Z,99.99
2018-10-17T05:48:46.868Z,99.99
2018-10-17T05:49:46.872Z,99.99
2018-10-17T05:50:46.870Z,99.99
2018-10-17T05:51:46.869Z,99.99
2018-10-17T05:52:46.861Z,99.99
2018-10-17T05:53:46.860Z,99.99
2018-10-17T05:54:46.861Z,99.99
2018-10-17T05:55:46.857Z,99.99
2018-10-17T05:56:46.892Z,99.99
2018-10-17T05:57:46.854Z,99.99
2018-10-17T05:58:46.851Z,99.99
2018-10-17T05:59:46.850Z,99.99
2018-10-17T06:00:46.849Z,99.99
2018-10-17T06:01:46.957Z,99.99
2018-10-17T06:02:46.844Z,99.99
2018-10-17T06:03:46.841Z,99.99
2018-10-17T06:04:46.838Z,99.99
2018-10-17T06:05:46.851Z,99.99
2018-10-17T06:06:46.835Z,99.99
2018-10-17T06:07:46.835Z,99.99
2018-10-17T06:08:46.835Z,99.99
2018-10-17T06:09:46.831Z,99.99
2018-10-17T06:10:46.847Z,99.99
2018-10-17T06:11:46.828Z,99.99
2018-10-17T06:12:46.830Z,99.99
2018-10-17T06:13:46.824Z,99.99
2018-10-17T06:14:46.821Z,99.99
2018-10-17T06:15:46.817Z,99.99
2018-10-17T06:16:46.890Z,99.99
2018-10-17T06:17:46.817Z,99.99
2018-10-17T06:18:46.819Z,99.99
2018-10-17T06:19:46.812Z,99.99
2018-10-17T06:20:46.815Z,99.99
2018-10-17T06:21:46.810Z,99.99
2018-10-17T06:22:46.807Z,99.99
2018-10-17T06:23:46.805Z,99.99
2018-10-17T06:24:46.805Z,99.99
2018-10-17T06:25:46.807Z,99.99
2018-10-17T06:26:46.804Z,99.99
2018-10-17T06:27:46.801Z,99.99
2018-10-17T06:28:46.800Z,99.99
2018-10-17T06:29:46.798Z,99.99
2018-10-17T06:30:46.805Z,99.99
2018-10-17T06:31:46.799Z,99.99
2018-10-17T06:32:46.794Z,99.99
2018-10-17T06:33:46.844Z,99.99
2018-10-17T06:34:46.861Z,99.99
2018-10-17T06:35:46.791Z,99.99
2018-10-17T06:36:46.793Z,99.99
2018-10-17T06:37:46.799Z,99.99
2018-10-17T06:38:46.789Z,99.99
2018-10-17T06:39:46.787Z,99.99
2018-10-17T06:40:46.791Z,99.99
2018-10-17T06:41:46.788Z,99.99
2018-10-17T06:42:46.787Z,99.99
2018-10-17T06:43:46.837Z,99.99
2018-10-17T06:44:46.786Z,99.99
2018-10-17T06:45:46.785Z,99.99
2018-10-17T06:46:46.786Z,99.99
2018-10-17T06:47:46.785Z,99.99
2018-10-17T06:48:46.784Z,99.99
2018-10-17T06:49:46.784Z,99.99
2018-10-17T06:50:46.781Z,99.99
2018-10-17T06:51:46.784Z,99.99
2018-10-17T06:52:46.781Z,99.99
2018-10-17T06:53:46.785Z,99.99
2018-10-17T06:54:46.791Z,99.99
2018-10-17T06:55:46.783Z,99.99
2018-10-17T06:56:46.784Z,99.99
2018-10-17T06:57:46.784Z,99.99
2018-10-17T06:58:46.784Z,99.99
2018-10-17T06:59:46.784Z,99.99
2018-10-17T07:00:46.787Z,99.99
2018-10-17T07:01:46.847Z,99.99
2018-10-17T07:02:46.783Z,99.99
2018-10-17T07:03:46.788Z,99.99
2018-10-17T07:04:46.790Z,99.99
2018-10-17T07:05:46.791Z,99.99
2018-10-17T07:06:46.797Z,99.99
2018-10-17T07:07:46.792Z,99.99
2018-10-17T07:08:46.801Z,99.34
2018-10-17T07:09:46.798Z,98.62
2018-10-17T07:10:46.798Z,97.28
2018-10-17T07:11:46.818Z,94.79
2018-10-17T07:12:46.805Z,94.83
2018-10-17T07:13:46.807Z,93.97
2018-10-17T07:14:46.809Z,92.43
2018-10-17T07:15:46.899Z,92.33
2018-10-17T07:16:46.812Z,91.28
2018-10-17T07:17:46.821Z,91.81
2018-10-17T07:18:46.828Z,91.42
2018-10-17T07:19:46.825Z,89.69
2018-10-17T07:20:46.830Z,88.93
2018-10-17T07:21:46.833Z,88.93
2018-10-17T07:22:46.842Z,89.89
2018-10-17T07:23:46.838Z,91.66
2018-10-17T07:24:46.846Z,93.20
2018-10-17T07:25:46.850Z,94.31
2018-10-17T07:26:46.855Z,94.98
2018-10-17T07:27:46.856Z,94.79
2018-10-17T07:28:46.898Z,93.73
2018-10-17T07:29:46.971Z,94.83
2018-10-17T07:30:46.865Z,94.83
2018-10-17T07:31:46.872Z,94.16
2018-10-17T07:32:46.876Z,94.26
2018-10-17T07:33:46.878Z,95.41
2018-10-17T07:34:46.882Z,96.80
2018-10-17T07:35:46.980Z,98.53
2018-10-17T07:36:46.889Z,98.82
2018-10-17T07:37:46.892Z,99.10
2018-10-17T07:38:46.899Z,99.99
2018-10-17T07:39:46.897Z,99.99
2018-10-17T07:40:46.899Z,99.99
2018-10-17T07:41:46.908Z,99.99
2018-10-17T07:42:46.908Z,99.99
2018-10-17T07:43:46.912Z,99.99
2018-10-17T07:44:46.915Z,99.99
2018-10-17T07:45:46.983Z,98.77
2018-10-17T07:46:46.921Z,95.03
2018-10-17T07:47:46.927Z,93.15
2018-10-17T07:48:46.926Z,92.33
2018-10-17T07:49:46.935Z,91.75
2018-10-17T07:50:46.935Z,90.94
2018-10-17T07:51:46.937Z,91.71
2018-10-17T07:52:46.940Z,91.47
2018-10-17T07:53:46.948Z,90.12
2018-10-17T07:54:46.944Z,91.28
2018-10-17T07:55:46.949Z,91.61
2018-10-17T07:56:46.952Z,89.01
2018-10-17T07:57:46.956Z,86.36
2018-10-17T07:58:46.963Z,85.11
2018-10-17T07:59:47.031Z,84.39
2018-10-17T08:00:46.967Z,82.85
2018-10-17T08:01:46.974Z,82.02
2018-10-17T08:02:46.970Z,81.45
2018-10-17T08:03:46.975Z,82.02
2018-10-17T08:04:46.975Z,81.45
2018-10-17T08:05:46.986Z,80.71
2018-10-17T08:06:47.077Z,80.77
2018-10-17T08:07:46.987Z,80.68
2018-10-17T08:08:46.991Z,81.06
2018-10-17T08:09:46.993Z,80.96
2018-10-17T08:10:46.998Z,81.83
2018-10-17T08:11:47.009Z,81.83
2018-10-17T08:12:47.004Z,80.71
2018-10-17T08:13:47.008Z,79.94
2018-10-17T08:14:47.011Z,80.14
2018-10-17T08:15:47.015Z,79.89
2018-10-17T08:16:47.021Z,78.44
2018-10-17T08:17:47.028Z,78.58
2018-10-17T08:18:47.026Z,76.55
2018-10-17T08:19:47.029Z,76.30
2018-10-17T08:20:47.034Z,74.21
2018-10-17T08:21:47.036Z,73.83
2018-10-17T08:22:47.041Z,73.25
2018-10-17T08:24:28.187Z,71.16
2018-10-17T08:25:28.115Z,70.48
2018-10-17T08:26:28.128Z,69.84
2018-10-17T08:27:28.133Z,69.65
2018-10-17T08:28:28.146Z,69.49
2018-10-17T08:29:28.138Z,68.46
2018-10-17T08:30:28.154Z,66.40
2018-10-17T08:31:28.154Z,65.27
2018-10-17T08:32:28.155Z,64.01
2018-10-17T08:33:28.160Z,63.17
2018-10-17T08:34:28.163Z,62.79
2018-10-17T08:35:28.316Z,62.98
2018-10-17T08:36:28.579Z,62.95
2018-10-17T08:37:28.673Z,62.85
2018-10-17T08:38:28.193Z,63.76
2018-10-17T08:39:28.195Z,64.04
2018-10-17T08:40:28.205Z,65.17
2018-10-17T08:41:28.214Z,64.69
2018-10-17T08:42:28.221Z,65.95
2018-10-17T08:43:28.225Z,64.59
2018-10-17T08:44:28.232Z,64.43
2018-10-17T08:45:28.244Z,64.04
2018-10-17T08:46:28.260Z,63.89
2018-10-17T08:47:28.263Z,62.07
2018-10-17T08:48:28.266Z,61.43
2018-10-17T08:49:28.276Z,60.39
2018-10-17T08:50:28.324Z,59.00
2018-10-17T08:51:28.293Z,57.54
2018-10-17T08:52:28.312Z,57.37
2018-10-17T08:53:28.310Z,57.01
2018-10-17T08:54:28.319Z,56.46
2018-10-17T08:55:28.334Z,55.85
2018-10-17T08:56:28.344Z,55.85
2018-10-17T08:57:28.354Z,56.25
2018-10-17T08:58:28.363Z,58.19
2018-10-17T08:59:28.375Z,58.58
2018-10-17T09:00:28.392Z,58.41
2018-10-17T09:01:28.398Z,57.47
2018-10-17T09:02:28.407Z,56.79
2018-10-17T09:03:28.418Z,56.72
2018-10-17T09:04:28.430Z,54.90
2018-10-17T09:05:28.439Z,54.80
2018-10-17T09:06:28.455Z,55.33
2018-10-17T09:07:28.462Z,56.40
2018-10-17T09:08:28.474Z,57.00
2018-10-17T09:09:28.484Z,58.14
2018-10-17T09:10:28.499Z,59.30
2018-10-17T09:11:28.508Z,58.85
2018-10-17T09:12:28.524Z,61.24
2018-10-17T09:13:28.584Z,62.82
2018-10-17T09:14:28.539Z,64.08
2018-10-17T09:15:28.552Z,65.24
2018-10-17T09:16:28.621Z,65.05
2018-10-17T09:17:28.572Z,64.82
2018-10-17T09:18:28.585Z,65.78
2018-10-17T09:19:28.662Z,66.59
2018-10-17T09:20:28.778Z,67.43
2018-10-17T09:21:29.021Z,68.59
2018-10-17T09:22:28.747Z,70.13
2018-10-17T09:23:28.626Z,70.96
2018-10-17T09:24:28.636Z,71.98
2018-10-17T09:25:28.677Z,73.05
2018-10-17T09:26:28.656Z,74.10
2018-10-17T09:27:28.665Z,74.88
2018-10-17T09:28:28.676Z,74.93
2018-10-17T09:29:28.683Z,74.45
2018-10-17T09:30:28.771Z,74.84
2018-10-17T09:31:28.689Z,75.99
2018-10-17T09:32:28.699Z,75.90
2018-10-17T09:33:28.706Z,76.82
2018-10-17T09:34:28.713Z,77.21
2018-10-17T09:35:28.767Z,78.46
2018-10-17T09:36:28.727Z,78.65
2018-10-17T09:37:28.732Z,78.94
2018-10-17T09:38:28.740Z,78.56
2018-10-17T09:39:28.753Z,78.17
2018-10-17T09:40:28.753Z,78.56
2018-10-17T09:41:28.760Z,78.03
2018-10-17T09:42:28.765Z,78.23
2018-10-17T09:43:28.770Z,78.42
2018-10-17T09:44:28.781Z,78.46
2018-10-17T09:45:28.782Z,77.59
2018-10-17T09:46:28.785Z,77.63
2018-10-17T09:47:28.796Z,76.48
2018-10-17T09:48:28.803Z,75.71
2018-10-17T09:49:28.809Z,76.13
2018-10-17T09:50:28.817Z,75.10
2018-10-17T09:51:28.823Z,72.83
2018-10-17T09:52:28.832Z,71.03
2018-10-17T09:53:28.977Z,69.68
2018-10-17T09:54:28.851Z,69.04
2018-10-17T09:55:28.861Z,67.30
2018-10-17T09:56:28.864Z,66.01
2018-10-17T09:57:28.880Z,66.59
2018-10-17T09:58:28.887Z,67.88
2018-10-17T09:59:28.904Z,67.62
2018-10-17T10:00:28.903Z,67.33
2018-10-17T10:01:28.916Z,67.01
2018-10-17T10:02:29.029Z,67.20
2018-10-17T10:03:28.938Z,67.30
2018-10-17T10:04:28.952Z,67.97
2018-10-17T10:05:28.971Z,67.78
2018-10-17T10:06:28.972Z,67.20
2018-10-17T10:07:28.985Z,67.59
2018-10-17T10:08:28.993Z,67.24
2018-10-17T10:09:29.008Z,66.46
2018-10-17T10:10:29.017Z,66.66
2018-10-17T10:11:29.038Z,65.30
2018-10-17T10:12:29.041Z,65.59
2018-10-17T10:13:29.049Z,66.17
2018-10-17T10:14:29.057Z,65.82
2018-10-17T10:15:29.077Z,64.76
2018-10-17T10:16:29.084Z,64.37
2018-10-17T10:17:29.103Z,63.89
2018-10-17T10:18:29.100Z,64.92
2018-10-17T10:19:29.109Z,65.88
2018-10-17T10:20:29.120Z,65.95
2018-10-17T10:21:29.125Z,65.98
2018-10-17T10:22:29.159Z,66.30
2018-10-17T10:23:29.203Z,66.11
2018-10-17T10:24:29.154Z,65.63
2018-10-17T10:25:29.164Z,64.66
2018-10-17T10:26:29.163Z,64.95
2018-10-17T10:27:29.178Z,65.05
2018-10-17T10:28:29.189Z,65.05
2018-10-17T10:29:29.194Z,65.92
2018-10-17T10:30:29.202Z,65.20
2018-10-17T10:31:29.245Z,64.72
2018-10-17T10:32:29.216Z,66.20
2018-10-17T10:33:29.223Z,65.24
2018-10-17T10:34:29.229Z,64.82
2018-10-17T10:35:29.236Z,65.78
2018-10-17T10:36:29.246Z,65.88
2018-10-17T10:37:29.252Z,65.82
2018-10-17T10:38:29.254Z,64.92
2018-10-17T10:39:29.275Z,64.85
2018-10-17T10:40:29.293Z,64.95
2018-10-17T10:41:29.315Z,64.95
2018-10-17T10:42:29.291Z,65.05
2018-10-17T10:43:29.289Z,64.37
2018-10-17T10:44:29.302Z,64.63
2018-10-17T10:45:29.322Z,65.01
2018-10-17T10:46:29.312Z,65.05
2018-10-17T10:47:29.320Z,63.98
2018-10-17T10:48:29.322Z,64.11
2018-10-17T10:49:29.347Z,64.11
2018-10-17T10:50:29.335Z,62.85
2018-10-17T10:51:29.426Z,62.85
2018-10-17T10:52:29.353Z,62.47
2018-10-17T10:53:29.362Z,62.69
2018-10-17T10:54:29.373Z,62.59
2018-10-17T10:55:29.365Z,61.72
2018-10-17T10:56:29.372Z,61.43
2018-10-17T10:57:29.387Z,62.11
2018-10-17T10:58:29.484Z,62.08
2018-10-17T10:59:29.658Z,62.79
2018-10-17T11:00:29.398Z,63.69
2018-10-17T11:01:29.403Z,63.89
2018-10-17T11:02:29.410Z,63.92
2018-10-17T11:03:29.417Z,63.73
2018-10-17T11:04:29.514Z,63.63
2018-10-17T11:05:29.592Z,62.92
2018-10-17T11:06:29.446Z,63.34
2018-10-17T11:07:29.444Z,62.76
2018-10-17T11:08:29.527Z,62.63
2018-10-17T11:09:29.455Z,63.02
2018-10-17T11:10:29.466Z,62.63
2018-10-17T11:11:29.496Z,63.60
2018-10-17T11:12:29.473Z,63.98
2018-10-17T11:13:29.477Z,64.24
2018-10-17T11:14:29.692Z,64.47
2018-10-17T11:15:29.539Z,64.27
2018-10-17T11:16:29.495Z,63.53
2018-10-17T11:17:29.508Z,62.95
2018-10-17T11:18:29.507Z,62.18
2018-10-17T11:19:29.515Z,60.72
2018-10-17T11:20:29.529Z,60.92
2018-10-17T11:21:29.529Z,61.43
2018-10-17T11:22:29.548Z,60.27
2018-10-17T11:23:29.543Z,60.59
2018-10-17T11:24:29.563Z,60.59
2018-10-17T11:25:30.235Z,60.50
2018-10-17T11:26:29.565Z,59.75
2018-10-17T11:27:29.564Z,59.66
2018-10-17T11:28:29.569Z,59.46
2018-10-17T11:29:29.646Z,59.53
2018-10-17T11:30:29.592Z,60.37
2018-10-17T11:31:29.648Z,60.50
2018-10-17T11:32:29.596Z,60.59
2018-10-17T11:33:29.605Z,60.01
2018-10-17T11:34:29.610Z,60.30
2018-10-17T11:35:29.617Z,59.72
2018-10-17T11:36:29.631Z,58.85
2018-10-17T11:37:29.655Z,59.23
2018-10-17T11:38:29.634Z,59.43
2018-10-17T11:39:29.639Z,59.91
2018-10-17T11:40:29.662Z,59.33
2018-10-17T11:41:29.665Z,59.14
2018-10-17T11:42:29.654Z,58.37
2018-10-17T11:43:29.666Z,59.05
2018-10-17T11:44:29.786Z,58.37
2018-10-17T11:45:29.698Z,58.72
2018-10-17T11:46:29.680Z,59.31
2018-10-17T11:47:29.689Z,59.72
2018-10-17T11:48:29.693Z,59.63
2018-10-17T11:49:29.698Z,60.30
2018-10-17T11:50:29.717Z,59.89
2018-10-17T11:51:29.710Z,59.69
2018-10-17T11:52:29.714Z,60.75
2018-10-17T11:53:29.720Z,61.21
2018-10-17T11:54:29.746Z,61.30
2018-10-17T11:55:29.736Z,60.75
2018-10-17T11:56:29.744Z,60.53
2018-10-17T11:57:29.743Z,61.21
2018-10-17T11:58:29.766Z,60.82
2018-10-17T11:59:29.777Z,61.30
2018-10-17T12:00:29.765Z,61.30
2018-10-17T12:01:29.769Z,61.15
2018-10-17T12:02:29.829Z,61.02
2018-10-17T12:03:29.850Z,61.30
2018-10-17T12:04:29.924Z,62.05
2018-10-17T12:05:30.185Z,62.92
2018-10-17T12:06:29.921Z,63.31
2018-10-17T12:07:29.828Z,63.69
2018-10-17T12:08:29.809Z,64.05
2018-10-17T12:09:29.935Z,64.82
2018-10-17T12:10:29.826Z,64.14
2018-10-17T12:11:29.868Z,64.37
2018-10-17T12:12:29.842Z,63.69
2018-10-17T12:13:29.857Z,63.82
2018-10-17T12:14:29.880Z,62.95
2018-10-17T12:15:29.968Z,62.85
2018-10-17T12:16:29.857Z,62.66
2018-10-17T12:17:29.863Z,61.98
2018-10-17T12:18:29.866Z,62.63
2018-10-17T12:19:29.877Z,63.89
2018-10-17T12:20:29.880Z,63.69
2018-10-17T12:21:29.894Z,63.85
2018-10-17T12:22:29.891Z,63.85
2018-10-17T12:23:30.751Z,64.31
2018-10-17T12:24:29.901Z,64.69
2018-10-17T12:25:30.010Z,64.82
2018-10-17T12:26:29.913Z,65.11
2018-10-17T12:27:29.918Z,65.01
2018-10-17T12:28:29.991Z,64.27
2018-10-17T12:29:29.984Z,63.85
2018-10-17T12:30:29.950Z,64.08
2018-10-17T12:31:29.941Z,63.98
2018-10-17T12:32:29.961Z,63.69
2018-10-17T12:33:29.950Z,63.66
2018-10-17T12:34:29.954Z,63.95
2018-10-17T12:35:29.962Z,64.34
2018-10-17T12:36:29.974Z,64.89
2018-10-17T12:37:29.972Z,65.63
2018-10-17T12:38:29.993Z,66.78
2018-10-17T12:39:30.091Z,66.69
2018-10-17T12:40:30.138Z,67.20
2018-10-17T12:41:30.080Z,66.72
2018-10-17T12:42:30.017Z,65.95
2018-10-17T12:43:30.003Z,65.20
2018-10-17T12:44:30.013Z,64.92
2018-10-17T12:45:30.022Z,65.37
2018-10-17T12:46:30.023Z,65.17
2018-10-17T12:47:30.031Z,65.30
2018-10-17T12:48:30.046Z,65.40
2018-10-17T12:49:30.037Z,66.17
2018-10-17T12:50:30.068Z,65.30
2018-10-17T12:51:30.048Z,64.72
2018-10-17T12:52:30.094Z,64.82
2018-10-17T12:53:30.126Z,64.82
2018-10-17T12:54:30.062Z,64.14
2018-10-17T12:55:30.072Z,64.05
2018-10-17T12:56:30.077Z,64.92
2018-10-17T12:57:30.087Z,64.14
2018-10-17T12:58:30.096Z,64.08
2018-10-17T12:59:30.124Z,63.40
2018-10-17T13:00:30.099Z,63.79
2018-10-17T13:01:30.102Z,64.37
2018-10-17T13:02:30.110Z,63.89
2018-10-17T13:03:30.116Z,64.18
2018-10-17T13:04:30.120Z,63.02
2018-10-17T13:05:30.125Z,63.40
2018-10-17T13:06:30.130Z,63.21
2018-10-17T13:07:30.136Z,63.89
2018-10-17T13:08:30.141Z,63.11
2018-10-17T13:09:30.149Z,63.60
2018-10-17T13:10:30.150Z,63.50
2018-10-17T13:11:30.175Z,63.50
2018-10-17T13:12:30.164Z,63.89
2018-10-17T13:13:30.167Z,63.98
2018-10-17T13:14:30.176Z,63.31
2018-10-17T13:15:30.181Z,63.50
2018-10-17T13:16:30.186Z,63.50
2018-10-17T13:17:30.190Z,63.89
2018-10-17T13:18:30.246Z,63.89
2018-10-17T13:19:30.207Z,64.14
2018-10-17T13:20:30.229Z,64.92
2018-10-17T13:21:30.213Z,65.20
2018-10-17T13:22:30.218Z,65.11
2018-10-17T13:23:30.224Z,65.17
2018-10-17T13:24:30.241Z,65.75
2018-10-17T13:25:30.236Z,66.01
2018-10-17T13:26:30.242Z,66.88
2018-10-17T13:27:30.248Z,67.27
2018-10-17T13:28:30.275Z,67.46
2018-10-17T13:29:30.255Z,67.94
2018-10-17T13:30:30.276Z,67.71
2018-10-17T13:31:30.269Z,68.29
2018-10-17T13:32:31.218Z,67.43
2018-10-17T13:33:30.478Z,68.39
2018-10-17T13:34:30.297Z,68.68